Time;durP1;ratioP1;P1;durP2;ratioP2;P2;SDS_P1;SDS_P2;PMS_P1;PMS_P2;Temp;Humidity;BMP_temperature;BMP_pressure;BME280_temperature;BME280_humidity;BME280_pressure;Samples;Min_cycle;Max_cycle;Signal;HPM_P1;HPM_P2
2022/12/24 00:00:20;;;;;;;10.05;1.35;;;;;;;5.52;100.00;99010.03;5007301;28;20037;-85
2022/12/24 00:02:46;;;;;;;15.65;1.58;;;;;;;5.52;100.00;99014.44;5022569;28;20050;-85
2022/12/24 00:05:12;;;;;;;9.60;1.50;;;;;;;5.49;100.00;99010.31;5008812;28;20530;-85
2022/12/24 00:07:38;;;;;;;8.52;1.35;;;;;;;5.51;100.00;99018.03;5010081;28;20026;-85
2022/12/24 00:10:04;;;;;;;7.50;1.95;;;;;;;5.52;100.00;99022.31;5027180;28;20033;-85
2022/12/24 00:12:31;;;;;;;7.45;1.85;;;;;;;5.49;100.00;99018.19;5019328;28;20029;-84
2022/12/24 00:14:56;;;;;;;9.88;1.63;;;;;;;5.48;100.00;99021.75;5033750;28;20478;-85
2022/12/24 00:17:22;;;;;;;20.33;3.25;;;;;;;5.49;100.00;99025.22;5014261;28;20052;-85
2022/12/24 00:19:48;;;;;;;14.43;2.90;;;;;;;5.44;100.00;99029.13;5004715;28;20045;-80
2022/12/24 00:22:14;;;;;;;9.90;2.83;;;;;;;5.44;100.00;99033.53;5009252;28;20033;-80
2022/12/24 00:24:40;;;;;;;13.57;3.08;;;;;;;5.40;100.00;99038.22;5017029;28;20438;-85
2022/12/24 00:27:05;;;;;;;8.55;2.63;;;;;;;5.32;100.00;99031.09;5019794;28;20044;-85
2022/12/24 00:29:32;;;;;;;9.07;2.10;;;;;;;5.28;100.00;99028.91;5009084;28;20037;-85
2022/12/24 00:31:58;;;;;;;10.50;2.17;;;;;;;5.25;100.00;99034.44;5024218;28;20026;-85
2022/12/24 00:34:24;;;;;;;12.85;2.53;;;;;;;5.21;100.00;99031.28;5024454;28;20112;-80
2022/12/24 00:36:51;;;;;;;9.95;2.50;;;;;;;5.19;100.00;99028.00;5025457;28;20437;-80
2022/12/24 00:39:16;;;;;;;15.15;2.95;;;;;;;5.17;100.00;99029.91;5037188;28;20040;-85
2022/12/24 00:41:42;;;;;;;13.38;2.30;;;;;;;5.15;100.00;99031.84;5023765;28;20042;-85
2022/12/24 00:44:09;;;;;;;14.07;2.78;;;;;;;5.14;100.00;99031.03;5025829;28;20038;-84
2022/12/24 00:46:36;;;;;;;12.90;1.60;;;;;;;5.15;100.00;99043.16;4993493;28;20033;-85
2022/12/24 00:49:02;;;;;;;12.32;2.30;;;;;;;5.12;100.00;99035.59;4992777;28;20096;-84
2022/12/24 00:51:29;;;;;;;11.27;2.58;;;;;;;5.10;100.00;99037.53;5026066;28;20029;-84
2022/12/24 00:53:54;;;;;;;9.05;1.90;;;;;;;5.08;100.00;99039.47;5036327;28;20049;-81
2022/12/24 00:56:21;;;;;;;7.32;1.77;;;;;;;5.06;100.00;99037.00;5031748;28;20036;-80
2022/12/24 00:58:47;;;;;;;8.20;1.90;;;;;;;5.05;100.00;99037.13;5021865;28;20402;-81
2022/12/24 01:01:13;;;;;;;8.68;2.17;;;;;;;5.06;100.00;99038.78;5028609;28;20034;-80
2022/12/24 01:03:39;;;;;;;14.23;2.72;;;;;;;5.05;100.00;99037.94;5045457;28;20099;-80
2022/12/24 01:06:08;;;;;;;11.80;3.25;;;;;;;5.06;100.00;99044.03;5046786;28;20038;-80
2022/12/24 01:08:35;;;;;;;14.52;2.42;;;;;;;5.03;100.00;99042.50;5027140;28;20462;-80
2022/12/24 01:11:02;;;;;;;8.18;1.67;;;;;;;5.03;100.00;99044.31;5026974;28;20041;-79
2022/12/24 01:13:28;;;;;;;10.02;2.00;;;;;;;4.98;100.00;99044.75;5026273;28;20041;-80
2022/12/24 01:15:54;;;;;;;16.25;2.90;;;;;;;4.95;100.00;99045.84;5032331;28;20079;-79
2022/12/24 01:18:20;;;;;;;7.18;1.25;;;;;;;4.94;100.00;99048.59;5028266;28;20048;-80
2022/12/24 01:20:57;;;;;;;9.85;2.75;;;;;;;4.94;100.00;99045.97;5010265;28;20066;-80
2022/12/24 01:23:23;;;;;;;15.73;3.17;;;;;;;4.86;100.00;99046.69;5025478;28;20402;-80
2022/12/24 01:25:49;;;;;;;8.23;2.70;;;;;;;4.84;100.00;99044.22;5026245;28;20057;-80
2022/12/24 01:28:15;;;;;;;10.45;2.67;;;;;;;4.81;100.00;99047.13;5024616;28;20042;-85
2022/12/24 01:30:41;;;;;;;10.68;1.88;;;;;;;4.79;100.00;99043.84;5012401;28;20056;-85
2022/12/24 01:33:06;;;;;;;10.55;1.92;;;;;;;4.79;100.00;99043.00;5034580;28;20025;-84
2022/12/24 01:35:32;;;;;;;9.23;1.35;;;;;;;4.78;100.00;99047.41;5023934;28;20367;-85
2022/12/24 01:37:58;;;;;;;10.30;1.58;;;;;;;4.77;100.00;99048.38;5036652;28;20030;-84
2022/12/24 01:43:25;;;;;;;11.52;1.30;;;;;;;4.79;100.00;99056.09;5021462;28;20104;-80
2022/12/24 01:46:00;;;;;;;19.10;2.15;;;;;;;4.78;100.00;99051.84;5029096;28;20038;-84
2022/12/24 01:48:46;;;;;;;13.05;1.55;;;;;;;4.76;100.00;99059.78;5026742;28;20068;-83
2022/12/24 01:51:27;;;;;;;11.90;1.75;;;;;;;4.74;100.00;99053.06;5027797;28;20087;-84
2022/12/24 01:54:14;;;;;;;5.07;1.23;;;;;;;4.72;100.00;99061.06;5030802;28;20057;-84
2022/12/24 01:56:45;;;;;;;19.77;2.97;;;;;;;4.67;100.00;99060.66;5021753;28;20095;-84
2022/12/24 01:59:15;;;;;;;6.97;1.23;;;;;;;4.66;100.00;99062.47;5029102;28;20067;-84
2022/12/24 02:01:41;;;;;;;7.57;1.52;;;;;;;4.61;100.00;99058.59;5027065;28;20046;-84
2022/12/24 02:04:15;;;;;;;13.23;1.95;;;;;;;4.60;100.00;99052.56;5035576;28;20096;-84
2022/12/24 02:06:40;;;;;;;6.65;1.05;;;;;;;4.51;100.00;99051.59;5007833;28;20049;-84
2022/12/24 02:09:06;;;;;;;18.98;3.10;;;;;;;4.49;100.00;99056.13;5038031;28;20479;-84
2022/12/24 02:11:35;;;;;;;12.23;1.42;;;;;;;4.45;100.00;99060.81;5024455;28;20095;-84
2022/12/24 02:14:02;;;;;;;5.75;1.10;;;;;;;4.41;100.00;99062.03;5021485;28;20474;-80
2022/12/24 02:17:09;;;;;;;7.68;1.20;;;;;;;4.39;100.00;99052.69;5002321;28;20125;-80
2022/12/24 02:19:47;;;;;;;7.90;0.88;;;;;;;4.35;100.00;99052.13;5006685;28;20067;-80
2022/12/24 02:22:19;;;;;;;7.68;1.00;;;;;;;4.36;100.00;99055.59;5037128;28;20036;-80
2022/12/24 02:25:04;;;;;;;8.38;1.52;;;;;;;4.33;100.00;99065.34;5013402;28;20025;-84
2022/12/24 02:27:51;;;;;;;7.93;1.48;;;;;;;4.28;100.00;99062.34;5014190;28;20038;-84
2022/12/24 02:30:39;;;;;;;6.47;1.10;;;;;;;4.25;100.00;99064.41;5026902;28;20029;-80
2022/12/24 02:33:34;;;;;;;9.85;0.85;;;;;;;4.26;100.00;99072.13;5009308;28;20501;-80
2022/12/24 02:36:12;;;;;;;4.75;1.00;;;;;;;4.28;100.00;99072.81;4958377;28;20564;-84
2022/12/24 02:39:14;;;;;;;10.77;1.08;;;;;;;4.28;100.00;99075.44;5022830;28;20038;-84
2022/12/24 02:44:32;;;;;;;8.65;1.40;;;;;;;4.28;100.00;99067.59;5031108;28;20048;-84
2022/12/24 02:47:00;;;;;;;15.23;2.28;;;;;;;4.30;100.00;99070.06;5015895;28;20626;-84
2022/12/24 02:49:26;;;;;;;11.30;1.30;;;;;;;4.27;100.00;99071.16;5028776;28;20060;-84
2022/12/24 02:51:52;;;;;;;11.70;1.50;;;;;;;4.26;100.00;99071.28;5013452;28;20497;-85
2022/12/24 02:54:17;;;;;;;16.20;1.63;;;;;;;4.22;100.00;99071.56;5029745;28;20032;-84
2022/12/24 02:57:10;;;;;;;7.20;1.30;;;;;;;4.25;100.00;99074.88;5007194;28;20030;-84
2022/12/24 03:00:04;;;;;;;11.35;1.52;;;;;;;4.26;100.00;99074.72;5034886;28;20037;-84
2022/12/24 03:02:33;;;;;;;10.65;2.05;;;;;;;4.26;100.00;99073.91;5010429;28;20434;-84
2022/12/24 03:05:12;;;;;;;12.95;1.30;;;;;;;4.30;100.00;99073.47;5027491;28;20048;-84
2022/12/24 03:07:48;;;;;;;18.83;2.35;;;;;;;4.32;100.00;99078.56;5026030;28;20538;-84
2022/12/24 03:10:27;;;;;;;12.57;1.90;;;;;;;4.35;100.00;99078.31;5018382;28;20479;-84
2022/12/24 03:13:01;;;;;;;11.05;1.98;;;;;;;4.38;100.00;99079.84;5014241;28;20128;-84
2022/12/24 03:15:30;;;;;;;16.30;2.50;;;;;;;4.38;100.00;99085.88;5011662;28;20512;-79
2022/12/24 03:17:59;;;;;;;12.80;1.73;;;;;;;4.42;100.00;99074.19;5029910;28;20037;-79
2022/12/24 03:20:35;;;;;;;18.05;1.98;;;;;;;4.47;100.00;99079.81;5011218;28;20041;-80
2022/12/24 03:23:02;;;;;;;16.98;1.85;;;;;;;4.48;100.00;99080.66;5008296;28;20399;-79
2022/12/24 03:25:32;;;;;;;11.15;1.52;;;;;;;4.51;100.00;99082.19;5022889;28;20528;-84
2022/12/24 03:28:02;;;;;;;14.80;1.38;;;;;;;4.54;100.00;99079.28;5029402;28;20136;-84
2022/12/24 03:30:40;;;;;;;15.98;2.33;;;;;;;4.53;100.00;99083.69;5010687;28;20045;-85
2022/12/24 03:33:06;;;;;;;10.52;1.60;;;;;;;4.53;100.00;99069.75;5017343;28;20124;-85
2022/12/24 03:35:31;;;;;;;9.57;1.42;;;;;;;4.49;100.00;99063.97;5030568;28;20116;-84
2022/12/24 03:37:57;;;;;;;7.38;1.50;;;;;;;4.45;100.00;99066.06;5036705;28;20037;-84
2022/12/24 03:40:23;;;;;;;13.52;2.00;;;;;;;4.44;100.00;99066.19;5028774;28;20037;-84
2022/12/24 03:42:49;;;;;;;16.00;1.55;;;;;;;4.43;100.00;99070.59;5018193;28;20346;-84
2022/12/24 03:45:15;;;;;;;13.38;2.00;;;;;;;4.41;100.00;99067.28;5021435;28;20386;-84
2022/12/24 03:47:40;;;;;;;16.27;1.83;;;;;;;4.38;100.00;99071.97;5029000;28;20436;-83
2022/12/24 03:50:07;;;;;;;8.73;1.88;;;;;;;4.39;100.00;99068.41;5028115;28;20067;-83
2022/12/24 03:52:32;;;;;;;18.52;2.20;;;;;;;4.36;100.00;99073.91;5022344;28;20038;-84
2022/12/24 03:54:58;;;;;;;19.77;2.03;;;;;;;4.31;100.00;99075.16;5025202;28;20044;-79
2022/12/24 03:57:24;;;;;;;10.23;1.88;;;;;;;4.31;100.00;99074.31;5011758;28;20029;-78
2022/12/24 03:59:50;;;;;;;16.70;2.33;;;;;;;4.29;100.00;99077.06;5021758;28;20030;-84
2022/12/24 04:02:16;;;;;;;14.80;2.33;;;;;;;4.30;100.00;99075.28;5039884;28;20053;-84
2022/12/24 04:04:41;;;;;;;23.83;2.58;;;;;;;4.30;100.00;99081.34;5026057;28;20041;-84
2022/12/24 04:07:07;;;;;;;14.40;3.55;;;;;;;4.30;100.00;99078.72;5011854;28;20405;-84
2022/12/24 04:09:33;;;;;;;14.05;2.20;;;;;;;4.32;100.00;99081.19;5038098;28;20445;-84
2022/12/24 04:11:59;;;;;;;9.82;2.03;;;;;;;4.32;100.00;99063.72;5040674;28;20045;-84
2022/12/24 04:14:24;;;;;;;13.15;1.77;;;;;;;4.33;100.00;99067.97;5027309;28;20159;-84
2022/12/24 04:16:50;;;;;;;10.30;1.63;;;;;;;4.32;100.00;99070.72;5023038;28;20038;-84
2022/12/24 04:19:16;;;;;;;14.23;2.50;;;;;;;4.29;100.00;99074.47;5011964;28;20658;-84
2022/12/24 04:21:42;;;;;;;19.05;2.30;;;;;;;4.25;100.00;99070.47;5021785;28;20034;-83
2022/12/24 04:24:08;;;;;;;11.65;2.03;;;;;;;4.24;100.00;99073.22;5015337;28;20110;-84
2022/12/24 04:26:34;;;;;;;12.20;1.50;;;;;;;4.21;100.00;99077.75;5029051;28;20033;-84
2022/12/24 04:29:01;;;;;;;19.67;3.03;;;;;;;4.17;100.00;99068.53;5020460;28;20041;-84
2022/12/24 04:31:26;;;;;;;12.07;2.20;;;;;;;4.12;100.00;99064.69;5018015;28;20029;-84
2022/12/24 04:33:52;;;;;;;11.60;2.30;;;;;;;4.07;100.00;99067.69;5023324;28;20048;-84
2022/12/24 04:36:19;;;;;;;13.95;2.13;;;;;;;4.05;100.00;99072.22;5028417;28;20470;-83
2022/12/24 04:38:46;;;;;;;11.50;1.75;;;;;;;4.03;100.00;99074.19;5028564;28;20040;-83
2022/12/24 04:41:16;;;;;;;15.02;1.83;;;;;;;4.00;100.00;99071.84;5013457;28;20037;-84
2022/12/24 04:43:42;;;;;;;12.32;3.00;;;;;;;3.94;100.00;99074.03;5030579;28;20064;-84
2022/12/24 04:46:13;;;;;;;11.88;1.52;;;;;;;3.94;100.00;99065.34;5004699;28;20443;-84
2022/12/24 04:48:40;;;;;;;13.07;2.40;;;;;;;3.92;100.00;99065.47;5020862;28;20034;-83
2022/12/24 04:51:07;;;;;;;14.00;1.75;;;;;;;3.92;100.00;99065.47;5025970;28;20033;-84
2022/12/24 04:53:37;;;;;;;18.00;2.22;;;;;;;3.94;100.00;99060.94;5029045;28;20425;-84
2022/12/24 04:56:06;;;;;;;23.25;2.63;;;;;;;3.97;100.00;99052.00;5043746;28;20042;-84
2022/12/24 04:58:32;;;;;;;11.13;2.10;;;;;;;4.01;100.00;99052.56;5045463;28;20121;-79
2022/12/24 05:01:04;;;;;;;25.67;3.15;;;;;;;4.04;100.00;99058.34;4989844;28;20534;-78
2022/12/24 05:03:29;;;;;;;20.55;2.33;;;;;;;4.03;100.00;99058.50;5038550;28;20061;-79
2022/12/24 05:06:07;;;;;;;23.10;2.60;;;;;;;4.06;100.00;99059.03;5009744;28;20033;-79
2022/12/24 05:08:33;;;;;;;27.30;3.42;;;;;;;4.04;100.00;99068.81;5006734;28;20498;-84
2022/12/24 05:11:01;;;;;;;20.20;2.75;;;;;;;4.06;100.00;99069.47;5011642;28;20041;-83
2022/12/24 05:13:28;;;;;;;19.33;2.45;;;;;;;4.04;100.00;99068.81;5012128;28;20482;-84
2022/12/24 05:15:54;;;;;;;19.92;2.80;;;;;;;4.03;100.00;99064.53;5016951;28;20075;-84
2022/12/24 05:18:21;;;;;;;24.77;3.50;;;;;;;4.05;100.00;99082.69;5032178;28;20075;-83
2022/12/24 05:20:47;;;;;;;29.15;2.90;;;;;;;4.06;100.00;99084.38;5030488;28;20532;-84
2022/12/24 05:26:21;;;;;;;29.73;4.05;;;;;;;4.08;100.00;99056.25;5032674;28;20377;-83
2022/12/24 05:28:53;;;;;;;31.92;3.75;;;;;;;4.11;100.00;99055.19;5024194;28;20052;-83
2022/12/24 05:31:20;;;;;;;29.17;2.75;;;;;;;4.10;100.00;99067.44;5029575;28;20037;-83
2022/12/24 05:33:45;;;;;;;30.05;3.08;;;;;;;4.15;100.00;99067.00;5032477;28;20136;-79
2022/12/24 05:36:12;;;;;;;37.03;3.85;;;;;;;4.18;100.00;99053.66;5048250;28;20108;-79
2022/12/24 05:38:37;;;;;;;30.27;2.85;;;;;;;4.21;100.00;99062.06;5024729;28;20034;-84
2022/12/24 05:41:04;;;;;;;33.80;4.38;;;;;;;4.26;100.00;99066.06;5029946;28;20045;-84
2022/12/24 05:43:30;;;;;;;32.47;3.85;;;;;;;4.30;100.00;99059.59;5027320;28;20030;-78
2022/12/24 05:46:00;;;;;;;29.88;3.50;;;;;;;4.37;100.00;99065.91;5022435;28;20048;-79
2022/12/24 05:48:27;;;;;;;30.02;3.30;;;;;;;4.41;100.00;99061.25;5047125;28;20044;-83
2022/12/24 05:50:53;;;;;;;38.15;4.32;;;;;;;4.47;100.00;99066.72;5031815;28;20041;-83
2022/12/24 05:53:20;;;;;;;27.00;3.80;;;;;;;4.53;100.00;99065.34;5015088;28;20056;-79
2022/12/24 05:55:46;;;;;;;33.20;5.63;;;;;;;4.56;100.00;99056.41;5024463;28;20124;-78
2022/12/24 05:58:12;;;;;;;35.28;3.75;;;;;;;4.59;100.00;99067.41;5041797;28;20390;-79
2022/12/24 06:00:37;;;;;;;38.45;5.22;;;;;;;4.63;100.00;99062.75;5025301;28;20099;-79
2022/12/24 06:03:03;;;;;;;21.73;3.58;;;;;;;4.64;100.00;99066.16;5012085;28;20498;-79
2022/12/24 06:05:29;;;;;;;34.67;4.40;;;;;;;4.66;100.00;99048.53;5024510;28;20486;-83
2022/12/24 06:07:55;;;;;;;40.10;3.80;;;;;;;4.67;100.00;99048.38;5040911;28;20033;-84
2022/12/24 06:10:21;;;;;;;28.88;3.53;;;;;;;4.68;100.00;99044.00;5022496;28;20390;-84
2022/12/24 06:12:47;;;;;;;36.42;4.65;;;;;;;4.69;100.00;99046.47;5032071;28;20037;-84
2022/12/24 06:15:13;;;;;;;26.17;3.13;;;;;;;4.69;100.00;99033.38;5028307;28;20551;-84
2022/12/24 06:17:39;;;;;;;43.10;3.72;;;;;;;4.74;100.00;99037.34;5035042;28;20115;-84
2022/12/24 06:20:05;;;;;;;30.25;3.65;;;;;;;4.78;100.00;99036.94;5012723;28;20037;-79
2022/12/24 06:22:31;;;;;;;28.88;3.60;;;;;;;4.82;100.00;99030.47;5042598;28;20038;-79
2022/12/24 06:24:57;;;;;;;32.10;3.97;;;;;;;4.90;100.00;99024.50;5025502;28;20650;-84
2022/12/24 06:27:23;;;;;;;30.35;3.70;;;;;;;4.94;100.00;99023.25;5030190;28;20038;-84
2022/12/24 06:29:49;;;;;;;44.03;4.07;;;;;;;4.97;100.00;99016.88;5007898;28;20364;-79
2022/12/24 06:32:14;;;;;;;35.88;3.58;;;;;;;5.08;100.00;99014.09;5019890;28;20052;-79
2022/12/24 06:34:40;;;;;;;30.35;3.10;;;;;;;5.24;100.00;99012.63;5031765;28;20486;-80
2022/12/24 06:37:06;;;;;;;35.35;4.63;;;;;;;5.40;100.00;99017.25;5040778;28;20504;-79
2022/12/24 06:39:32;;;;;;;33.05;3.35;;;;;;;5.49;100.00;99017.34;5024565;28;20042;-79
2022/12/24 06:41:58;;;;;;;33.67;4.05;;;;;;;5.55;100.00;99022.00;5018304;28;20029;-79
2022/12/24 06:44:23;;;;;;;41.10;4.95;;;;;;;5.52;100.00;99023.13;5016913;28;20049;-84
2022/12/24 06:46:49;;;;;;;35.78;3.20;;;;;;;5.49;100.00;99020.81;5013632;28;20029;-84
2022/12/24 06:49:15;;;;;;;34.35;4.57;;;;;;;5.46;100.00;99021.91;5044866;28;20044;-79
2022/12/24 06:51:41;;;;;;;29.75;3.97;;;;;;;5.43;100.00;99010.91;4993265;28;20045;-79
2022/12/24 06:54:06;;;;;;;24.88;2.80;;;;;;;5.39;100.00;99005.13;5013711;28;20068;-84
2022/12/24 06:56:32;;;;;;;23.15;3.05;;;;;;;5.31;100.00;99005.88;5003616;28;20052;-84
2022/12/24 06:58:58;;;;;;;31.25;4.35;;;;;;;5.22;100.00;99002.31;5044707;28;20026;-84
2022/12/24 07:01:24;;;;;;;28.38;3.00;;;;;;;5.17;100.00;99001.09;5027804;28;20033;-84
2022/12/24 07:03:49;;;;;;;38.28;3.58;;;;;;;5.13;100.00;98997.94;5013364;28;20053;-84
2022/12/24 07:06:33;;;;;;;30.02;4.30;;;;;;;5.15;100.00;98980.28;5037460;28;20401;-83
2022/12/24 07:08:59;;;;;;;25.92;2.92;;;;;;;5.12;100.00;98991.06;5038374;28;20041;-84
2022/12/24 07:11:25;;;;;;;40.50;3.30;;;;;;;5.14;100.00;98991.75;5035537;28;20056;-84
2022/12/24 07:13:51;;;;;;;46.92;4.05;;;;;;;5.17;100.00;98988.84;5031682;28;20033;-79
2022/12/24 07:16:17;;;;;;;52.17;7.38;;;;;;;5.20;100.00;98993.78;5016082;28;20036;-79
2022/12/24 07:18:43;;;;;;;27.92;3.58;;;;;;;5.21;100.00;98981.50;5013670;28;20064;-79
2022/12/24 07:21:09;;;;;;;29.60;3.50;;;;;;;5.22;100.00;98991.81;5033023;28;20025;-78
2022/12/24 07:23:35;;;;;;;37.67;3.72;;;;;;;5.24;100.00;98998.75;5030117;28;20112;-83
2022/12/24 07:26:03;;;;;;;29.20;2.28;;;;;;;5.24;100.00;98986.44;5010254;28;20752;-84
2022/12/24 07:28:29;;;;;;;26.88;3.50;;;;;;;5.24;100.00;98989.06;5030556;28;20025;-79
2022/12/24 07:30:56;;;;;;;30.55;3.00;;;;;;;5.26;100.00;98991.53;5022547;28;20033;-79
2022/12/24 07:33:23;;;;;;;27.40;3.08;;;;;;;5.29;100.00;98986.84;5035780;28;20034;-84
2022/12/24 07:35:59;;;;;;;29.50;3.95;;;;;;;5.36;100.00;98978.38;5020478;28;20571;-83
2022/12/24 07:38:25;;;;;;;29.58;3.60;;;;;;;5.34;100.00;98986.41;5004851;28;20057;-83
2022/12/24 07:40:50;;;;;;;26.48;4.28;;;;;;;5.39;100.00;98978.09;5038440;28;20464;-84
2022/12/24 07:43:16;;;;;;;23.17;2.67;;;;;;;5.44;100.00;98968.00;5028512;28;20029;-83
2022/12/24 07:45:42;;;;;;;40.10;3.55;;;;;;;5.48;100.00;98969.34;5010497;28;20051;-84
2022/12/24 07:48:08;;;;;;;29.08;4.03;;;;;;;5.52;100.00;98975.13;5006345;28;20040;-84
2022/12/24 07:50:33;;;;;;;27.50;3.70;;;;;;;5.54;100.00;98968.75;5014238;28;20088;-84
2022/12/24 07:52:59;;;;;;;31.27;4.65;;;;;;;5.59;100.00;98966.53;5024396;28;20515;-84
2022/12/24 07:55:25;;;;;;;21.08;2.45;;;;;;;5.62;100.00;98972.44;5029992;28;20061;-84
2022/12/24 07:57:51;;;;;;;20.65;2.75;;;;;;;5.63;100.00;98972.31;5008340;28;20482;-84
2022/12/24 08:00:17;;;;;;;17.67;3.05;;;;;;;5.65;100.00;98977.38;5030921;28;20501;-83
2022/12/24 08:02:42;;;;;;;19.75;1.98;;;;;;;5.64;100.00;98978.38;5023767;28;20048;-84
2022/12/24 08:05:08;;;;;;;23.23;2.40;;;;;;;5.66;100.00;98974.63;5027481;28;20041;-84
2022/12/24 08:07:34;;;;;;;31.25;4.38;;;;;;;5.67;100.00;98976.25;5028130;28;20037;-84
2022/12/24 08:10:00;;;;;;;21.65;3.28;;;;;;;5.68;100.00;98975.31;5029773;28;20557;-84
2022/12/24 08:12:26;;;;;;;18.25;2.38;;;;;;;5.69;100.00;98970.88;5027497;28;20045;-84
2022/12/24 08:14:52;;;;;;;27.20;2.72;;;;;;;5.71;100.00;98985.50;5012798;28;20107;-79
2022/12/24 08:17:18;;;;;;;20.42;3.20;;;;;;;5.71;100.00;99001.22;5043765;28;20095;-79
2022/12/24 08:19:43;;;;;;;18.00;2.13;;;;;;;5.74;100.00;99002.72;5012443;28;20048;-83
2022/12/24 08:22:09;;;;;;;18.63;2.00;;;;;;;5.74;100.00;98994.84;5013877;28;20041;-83
2022/12/24 08:24:36;;;;;;;13.32;2.45;;;;;;;5.75;100.00;99006.16;5021327;28;20078;-84
2022/12/24 08:27:02;;;;;;;21.83;2.53;;;;;;;5.79;100.00;99003.09;5028684;28;20064;-84
2022/12/24 08:29:28;;;;;;;20.52;3.05;;;;;;;5.82;100.00;99000.19;5027056;28;20042;-84
2022/12/24 08:31:54;;;;;;;29.00;2.50;;;;;;;5.88;100.00;98996.13;5024723;28;20061;-84
2022/12/24 08:34:19;;;;;;;25.67;2.90;;;;;;;5.95;100.00;98991.09;5022165;28;20041;-83
2022/12/24 08:36:45;;;;;;;17.20;2.75;;;;;;;5.99;100.00;98987.19;5025744;28;20045;-84
2022/12/24 08:39:11;;;;;;;25.83;3.15;;;;;;;6.03;100.00;98975.44;5038405;28;20041;-84
2022/12/24 08:41:36;;;;;;;20.10;3.47;;;;;;;6.08;100.00;98970.56;5022168;28;20037;-83
2022/12/24 08:44:03;;;;;;;25.02;3.03;;;;;;;6.13;100.00;98971.94;5026869;28;20429;-84
2022/12/24 08:46:29;;;;;;;19.92;2.03;;;;;;;6.17;100.00;98968.03;5006182;28;20506;-84
2022/12/24 08:48:54;;;;;;;28.92;3.40;;;;;;;6.22;100.00;98976.28;5027441;28;20033;-83
2022/12/24 08:51:20;;;;;;;32.67;2.95;;;;;;;6.28;100.00;98969.56;5013300;28;20479;-84
2022/12/24 08:53:46;;;;;;;23.52;3.30;;;;;;;6.32;100.00;98968.31;5030192;28;20052;-84
2022/12/24 08:56:12;;;;;;;18.85;2.53;;;;;;;6.33;100.00;98968.16;5033887;28;20025;-84
2022/12/24 08:58:38;;;;;;;23.17;3.20;;;;;;;6.34;100.00;98963.72;5032385;28;20035;-84
2022/12/24 09:01:16;;;;;;;20.15;3.42;;;;;;;6.38;100.00;98972.13;5041680;28;20026;-84
2022/12/24 09:03:42;;;;;;;23.45;3.63;;;;;;;6.40;100.00;98960.47;5009474;28;20533;-83
2022/12/24 09:06:09;;;;;;;24.13;4.20;;;;;;;6.44;100.00;98956.59;5014603;28;20030;-84
2022/12/24 09:08:35;;;;;;;22.95;3.28;;;;;;;6.47;100.00;98957.25;5032151;28;20065;-83
2022/12/24 09:11:04;;;;;;;24.77;3.15;;;;;;;6.50;100.00;98956.94;5011302;28;20042;-84
2022/12/24 09:13:30;;;;;;;30.85;8.43;;;;;;;6.51;100.00;98955.97;5021481;28;20116;-84
2022/12/24 09:15:56;;;;;;;23.23;3.10;;;;;;;6.52;100.00;98958.44;5032357;28;20037;-84
2022/12/24 09:18:23;;;;;;;23.23;3.42;;;;;;;6.58;100.00;98954.34;5032336;28;20044;-84
2022/12/24 09:20:48;;;;;;;35.20;3.22;;;;;;;6.62;100.00;98962.75;5025529;28;20179;-85
2022/12/24 09:23:14;;;;;;;28.85;3.72;;;;;;;6.67;100.00;98961.28;5028499;28;20105;-84
2022/12/24 09:25:41;;;;;;;18.58;3.03;;;;;;;6.75;100.00;98964.97;5040930;28;20033;-84
2022/12/24 09:28:07;;;;;;;20.02;3.10;;;;;;;6.80;100.00;98966.13;5028110;28;20524;-84
2022/12/24 09:30:33;;;;;;;23.13;2.88;;;;;;;6.88;100.00;98959.28;5028772;28;20110;-84
2022/12/24 09:32:58;;;;;;;25.80;2.78;;;;;;;6.91;100.00;98961.59;5014311;28;20052;-85
2022/12/24 09:35:24;;;;;;;30.08;3.40;;;;;;;6.95;100.00;98960.28;5023738;28;20052;-85
2022/12/24 09:38:01;;;;;;;25.83;3.60;;;;;;;6.98;100.00;98959.97;5022996;28;20033;-85
2022/12/24 09:40:38;;;;;;;27.25;3.50;;;;;;;7.03;100.00;98954.25;5033251;28;20026;-85
2022/12/24 09:43:14;;;;;;;27.67;2.30;;;;;;;7.03;100.00;98949.81;5027824;28;20037;-85
2022/12/24 09:45:43;;;;;;;;;;;;;;;6.95;100.00;98963.75;5030332;28;20414;-84
2022/12/24 09:48:15;;;;;;;17.60;2.80;;;;;;;7.00;100.00;98944.88;5036935;28;19917;-85
2022/12/24 09:51:01;;;;;;;29.63;3.05;;;;;;;7.04;100.00;98943.56;5014137;28;20045;-85
2022/12/24 09:53:40;;;;;;;24.63;3.40;;;;;;;7.06;100.00;98946.03;5012837;28;20048;-85
2022/12/24 09:56:19;;;;;;;24.83;3.70;;;;;;;7.10;100.00;98947.38;5022892;28;20043;-84
2022/12/24 09:58:53;;;;;;;26.33;6.32;;;;;;;7.16;100.00;98954.63;5028243;28;20371;-85
2022/12/24 10:01:19;;;;;;;23.75;2.97;;;;;;;7.18;100.00;98949.22;5026300;28;20096;-84
2022/12/24 10:03:45;;;;;;;25.95;2.88;;;;;;;7.27;100.00;98952.69;5038482;28;20053;-85
2022/12/24 10:06:15;;;;;;;35.70;3.53;;;;;;;7.27;100.00;98950.06;5043668;28;20128;-85
2022/12/24 10:09:09;;;;;;;25.33;4.13;;;;;;;7.31;100.00;98957.47;5029647;28;20048;-84
2022/12/24 10:12:09;;;;;;;22.73;3.63;;;;;;;7.37;100.00;98952.56;5029934;28;20446;-84
2022/12/24 10:15:06;;;;;;;20.77;3.10;;;;;;;7.45;100.00;98945.50;5025254;28;20037;-85
2022/12/24 10:18:01;;;;;;;27.08;3.03;;;;;;;7.55;100.00;98952.41;5022126;28;20038;-84
2022/12/24 10:20:45;;;;;;;22.25;3.13;;;;;;;7.63;100.00;98957.69;5024072;28;20033;-83
2022/12/24 10:23:30;;;;;;;26.63;3.28;;;;;;;7.69;100.00;98948.34;5026033;28;20088;-84
2022/12/24 10:26:11;;;;;;;23.35;3.25;;;;;;;7.67;100.00;98952.94;5046588;28;20056;-84
2022/12/24 10:28:37;;;;;;;26.85;2.88;;;;;;;7.64;100.00;98951.47;5029501;28;20376;-84
2022/12/24 10:31:06;;;;;;;17.08;3.03;;;;;;;7.66;100.00;98957.38;5029898;28;20041;-84
2022/12/24 10:33:48;;;;;;;30.42;4.07;;;;;;;7.66;100.00;98949.47;5044496;28;20034;-84
2022/12/24 10:36:22;;;;;;;30.10;3.10;;;;;;;7.71;100.00;98948.97;5014066;28;20033;-84
2022/12/24 10:38:48;;;;;;;28.92;4.13;;;;;;;7.71;100.00;98941.09;5017376;28;20033;-85
2022/12/24 10:41:15;;;;;;;32.42;3.97;;;;;;;7.70;100.00;98936.84;5006900;28;20545;-85
2022/12/24 10:43:44;;;;;;;34.63;4.28;;;;;;;7.75;100.00;98933.72;5009577;28;20140;-84
2022/12/24 10:46:37;;;;;;;35.63;3.75;;;;;;;7.75;100.00;98918.75;5039926;28;20033;-85
2022/12/24 10:49:10;;;;;;;31.92;4.20;;;;;;;7.76;100.00;98923.03;5002640;28;20061;-84
2022/12/24 10:51:57;;;;;;;25.88;4.25;;;;;;;7.78;100.00;98923.69;5034215;28;20030;-84
2022/12/24 10:54:25;;;;;;;28.67;3.53;;;;;;;7.75;100.00;98916.13;5021988;28;20088;-86
2022/12/24 10:56:57;;;;;;;36.50;4.88;;;;;;;7.78;100.00;98920.22;5022730;28;20040;-84
2022/12/24 10:59:27;;;;;;;34.10;4.03;;;;;;;7.79;100.00;98920.06;5018929;28;20061;-83
2022/12/24 11:01:57;;;;;;;31.50;3.85;;;;;;;7.80;100.00;98916.44;5011644;28;20068;-84
2022/12/24 11:04:29;;;;;;;30.02;3.47;;;;;;;7.80;100.00;98923.53;5026580;28;20033;-84
2022/12/24 11:07:04;;;;;;;30.70;3.55;;;;;;;7.80;100.00;98916.44;5023912;28;20032;-83
2022/12/24 11:09:35;;;;;;;37.60;5.38;;;;;;;7.81;100.00;98907.59;5004543;28;20049;-84
2022/12/24 11:12:04;;;;;;;38.15;4.70;;;;;;;7.82;100.00;98911.00;5027375;28;20040;-83
2022/12/24 11:14:36;;;;;;;36.25;4.07;;;;;;;7.82;100.00;98916.28;5020878;28;20505;-83
2022/12/24 11:17:03;;;;;;;38.03;4.43;;;;;;;7.81;100.00;98909.38;5034622;28;20045;-84
2022/12/24 11:19:38;;;;;;;39.53;4.50;;;;;;;7.82;100.00;98913.66;5024454;28;20029;-84
2022/12/24 11:22:18;;;;;;;31.23;4.40;;;;;;;7.81;100.00;98918.09;5030492;28;20079;-84
2022/12/24 11:24:44;;;;;;;45.53;11.85;;;;;;;7.82;100.00;98930.25;5028191;28;20029;-84
2022/12/24 11:27:31;;;;;;;123.20;54.78;;;;;;;7.89;100.00;98925.16;5028155;28;20453;-84
2022/12/24 11:30:15;;;;;;;38.92;13.85;;;;;;;7.95;100.00;98934.19;5045676;28;20033;-83
2022/12/24 11:32:43;;;;;;;36.40;13.20;;;;;;;7.99;100.00;98913.66;5010868;28;20069;-84
2022/12/24 11:35:20;;;;;;;29.27;12.15;;;;;;;7.97;100.00;98908.56;5045454;28;20029;-84
2022/12/24 11:38:06;;;;;;;27.50;14.10;;;;;;;7.90;100.00;98920.75;5023208;28;20065;-85
2022/12/24 11:40:43;;;;;;;31.45;15.07;;;;;;;7.82;100.00;98932.06;5042299;28;20030;-86
2022/12/24 11:43:21;;;;;;;20.13;7.28;;;;;;;7.74;100.00;98947.84;5010152;28;20071;-84
2022/12/24 11:45:55;;;;;;;24.48;12.85;;;;;;;7.72;100.00;98941.94;5034045;28;20037;-86